Time;durP1;ratioP1;P1;durP2;ratioP2;P2;SDS_P1;SDS_P2;PMS_P1;PMS_P2;Temp;Humidity;BMP_temperature;BMP_pressure;BME280_temperature;BME280_humidity;BME280_pressure;Samples;Min_cycle;Max_cycle;Signal;HPM_P1;HPM_P2
2023/06/12 00:01:41;;;;;;;;;21.25;20.75;;;;;23.73;48.13;100936.50;5039174;28;45334;-64
2023/06/12 00:04:07;;;;;;;;;20.25;19.00;;;;;23.72;48.11;100934.78;5042736;28;45351;-64
2023/06/12 00:06:37;;;;;;;;;24.00;21.50;;;;;23.72;48.12;100934.78;5043113;28;45384;-64
2023/06/12 00:09:04;;;;;;;;;23.75;21.75;;;;;23.68;48.14;100928.78;5043063;28;45356;-64
2023/06/12 00:11:29;;;;;;;;;17.25;16.50;;;;;23.68;48.17;100923.41;5042594;28;45380;-64
2023/06/12 00:13:54;;;;;;;;;16.50;16.50;;;;;23.69;48.46;100926.94;5043246;28;45399;-64
2023/06/12 00:16:20;;;;;;;;;16.75;15.50;;;;;23.69;48.19;100929.63;5042908;28;45435;-64
2023/06/12 00:18:46;;;;;;;;;21.00;16.75;;;;;23.65;48.12;100928.13;5024961;28;46832;-64
2023/06/12 00:21:12;;;;;;;;;15.75;14.50;;;;;23.66;48.65;100933.38;5042985;28;45352;-64
2023/06/12 00:23:38;;;;;;;;;18.00;16.00;;;;;23.63;48.18;100924.66;5025285;28;45414;-64
2023/06/12 00:26:04;;;;;;;;;16.75;15.75;;;;;23.54;48.03;100912.72;5041440;28;45458;-64
2023/06/12 00:28:30;;;;;;;;;15.00;13.75;;;;;23.59;48.15;100929.38;5042776;28;46922;-64
2023/06/12 00:30:56;;;;;;;;;17.75;16.25;;;;;23.56;48.11;100926.03;5042723;28;45237;-64
2023/06/12 00:33:21;;;;;;;;;14.25;13.50;;;;;23.59;48.02;100925.84;5042807;28;45521;-64
2023/06/12 00:35:47;;;;;;;;;20.00;17.00;;;;;23.59;48.15;100925.84;5042750;28;45677;-64
2023/06/12 00:38:13;;;;;;;;;15.00;14.50;;;;;23.57;48.11;100920.59;5042656;28;45510;-64
2023/06/12 00:40:39;;;;;;;;;16.50;15.25;;;;;23.57;48.08;100914.34;5042434;28;45454;-64
2023/06/12 00:43:05;;;;;;;;;15.25;14.25;;;;;23.56;48.31;100915.31;5042893;28;45450;-64
2023/06/12 00:45:30;;;;;;;;;16.00;16.00;;;;;23.54;47.96;100912.72;5024403;28;45550;-65
2023/06/12 00:47:59;;;;;;;;;13.75;12.00;;;;;23.51;48.15;100904.91;5042461;28;45342;-65
2023/06/12 00:50:27;;;;;;;;;15.00;14.25;;;;;23.53;48.05;100919.94;5042577;28;45221;-64
2023/06/12 00:52:54;;;;;;;;;13.50;11.75;;;;;23.54;48.33;100918.09;5042567;28;45383;-64
2023/06/12 00:55:20;;;;;;;;;13.00;12.50;;;;;23.53;48.20;100911.88;5042150;28;45511;-64
2023/06/12 00:57:47;;;;;;;;;15.50;14.50;;;;;23.51;48.31;100912.94;5042230;28;45300;-64
2023/06/12 01:00:15;;;;;;;;;15.00;13.25;;;;;23.50;48.07;100914.75;5042343;28;45633;-64
2023/06/12 01:02:45;;;;;;;;;15.50;14.50;;;;;23.52;48.26;100920.00;5042221;28;45318;-65
2023/06/12 01:05:19;;;;;;;;;13.75;13.75;;;;;23.51;48.28;100913.78;5035730;28;45268;-65
2023/06/12 01:07:45;;;;;;;;;14.00;14.00;;;;;23.52;48.11;100917.31;5038918;28;46314;-65
2023/06/12 01:10:17;;;;;;;;;18.00;15.50;;;;;23.50;48.24;100914.75;5041354;28;45581;-65
2023/06/12 01:12:44;;;;;;;;;13.25;12.00;;;;;23.49;48.25;100912.19;5041155;28;45476;-65
2023/06/12 01:15:10;;;;;;;;;12.00;12.00;;;;;23.48;47.86;100908.66;5040722;28;45332;-65
2023/06/12 01:17:35;;;;;;;;;14.75;12.50;;;;;23.49;48.05;100917.53;5041668;28;46235;-65
2023/06/12 01:20:11;;;;;;;;;13.50;11.50;;;;;23.48;48.21;100908.66;5042397;28;45418;-64
2023/06/12 01:22:42;;;;;;;;;15.00;14.25;;;;;23.42;48.45;100897.44;5041942;28;45439;-65
2023/06/12 01:25:08;;;;;;;;;12.75;11.75;;;;;23.47;48.14;100904.25;5041670;28;45495;-64
2023/06/12 01:27:58;;;;;;;;;14.00;14.00;;;;;23.47;48.02;100904.25;5041687;28;46938;-64
2023/06/12 01:30:43;;;;;;;;;14.75;14.75;;;;;23.46;48.16;100907.00;5023888;28;45338;-64
2023/06/12 01:33:17;;;;;;;;;14.50;14.50;;;;;23.46;48.40;100915.03;5041509;28;45338;-64
2023/06/12 01:35:46;;;;;;;;;19.50;15.50;;;;;23.46;48.26;100910.56;5041759;28;45380;-64
2023/06/12 01:38:22;;;;;;;;;14.50;14.50;;;;;23.46;48.10;100898.97;5023789;28;46255;-64
2023/06/12 01:40:50;;;;;;;;;14.50;13.75;;;;;23.45;48.00;100895.44;5041486;28;45521;-64
2023/06/12 01:43:15;;;;;;;;;16.75;14.00;;;;;23.47;48.21;100898.00;5041887;28;45246;-64
2023/06/12 01:45:41;;;;;;;;;14.25;12.00;;;;;23.47;47.84;100895.31;5041210;28;45523;-64
2023/06/12 01:48:07;;;;;;;;;15.75;14.25;;;;;23.45;48.16;100887.38;5041513;28;46290;-64
2023/06/12 01:50:32;;;;;;;;;15.50;15.50;;;;;23.44;47.87;100887.50;5023651;28;45348;-64
2023/06/12 01:52:57;;;;;;;;;12.25;12.00;;;;;23.45;48.14;100889.22;5040469;28;45485;-64
2023/06/12 01:55:24;;;;;;;;;16.00;13.25;;;;;23.43;48.35;100897.34;5041324;28;45282;-64
2023/06/12 01:57:50;;;;;;;;;14.00;13.75;;;;;23.42;47.97;100897.44;5023554;28;47188;-64
2023/06/12 02:00:16;;;;;;;;;19.00;16.25;;;;;23.42;48.14;100892.09;5025007;28;45321;-64
2023/06/12 02:02:42;;;;;;;;;18.25;15.00;;;;;23.40;48.17;100899.38;5041583;28;45336;-64
2023/06/12 02:05:07;;;;;;;;;14.75;14.00;;;;;23.41;47.98;100898.41;5041225;28;45533;-64
2023/06/12 02:07:33;;;;;;;;;13.75;12.50;;;;;23.39;48.29;100909.25;5023228;28;48964;-64
2023/06/12 02:09:59;;;;;;;;;15.00;12.00;;;;;23.42;48.08;100914.41;5023341;28;45482;-64
2023/06/12 02:12:24;;;;;;;;;14.25;11.25;;;;;23.37;48.28;100912.03;5041551;28;45468;-64
2023/06/12 02:14:50;;;;;;;;;13.75;13.00;;;;;23.42;47.98;100919.78;5041122;28;45428;-64
2023/06/12 02:17:17;;;;;;;;;14.25;13.50;;;;;23.40;48.24;100924.38;5041059;28;45413;-64
2023/06/12 02:19:43;;;;;;;;;14.25;12.50;;;;;23.42;48.14;100916.22;5041109;28;45304;-64
2023/06/12 02:22:08;;;;;;;;;15.25;12.50;;;;;23.41;48.09;100918.06;5041350;28;45471;-64
2023/06/12 02:24:35;;;;;;;;;17.25;14.75;;;;;23.40;48.12;100910.97;5041016;28;45178;-64
2023/06/12 02:27:01;;;;;;;;;15.50;13.25;;;;;23.40;48.09;100910.97;5040627;28;45358;-64
2023/06/12 02:29:26;;;;;;;;;17.00;15.00;;;;;23.37;47.81;100901.31;5040899;28;45294;-64
2023/06/12 02:31:52;;;;;;;;;16.00;14.25;;;;;23.36;48.03;100904.94;5023127;28;45369;-64
2023/06/12 02:34:17;;;;;;;;;14.75;14.00;;;;;23.36;48.03;100907.63;5040922;28;45745;-64
2023/06/12 02:36:43;;;;;;;;;17.25;14.75;;;;;23.36;48.34;100909.44;5040831;28;46074;-64
2023/06/12 02:39:12;;;;;;;;;15.00;13.00;;;;;23.36;47.88;100906.78;5040833;28;45569;-64
2023/06/12 02:41:39;;;;;;;;;17.50;14.25;;;;;23.34;48.12;100906.84;5040822;28;45357;-64
2023/06/12 02:44:05;;;;;;;;;16.50;13.25;;;;;23.33;48.11;100907.84;5040649;28;45388;-64
2023/06/12 02:46:30;;;;;;;;;17.25;16.75;;;;;23.33;48.24;100913.19;5022360;28;46134;-64
2023/06/12 02:48:56;;;;;;;;;14.50;14.25;;;;;23.32;47.95;100905.22;5040733;28;45314;-64
2023/06/12 02:51:21;;;;;;;;;18.00;16.25;;;;;23.30;48.39;100901.81;5040477;28;45443;-64
2023/06/12 02:53:46;;;;;;;;;18.25;17.00;;;;;23.28;48.20;100903.72;5040564;28;45230;-64
2023/06/12 02:56:12;;;;;;;;;15.75;15.00;;;;;23.29;48.41;100906.28;5022795;28;46638;-64
2023/06/12 02:58:39;;;;;;;;;15.25;13.75;;;;;23.28;48.17;100904.59;5022796;28;45274;-64
2023/06/12 03:01:05;;;;;;;;;20.00;18.00;;;;;23.29;48.15;100900.94;5040522;28;45744;-64
2023/06/12 03:03:31;;;;;;;;;15.50;15.50;;;;;23.28;48.16;100893.88;5040398;28;45394;-64
2023/06/12 03:05:56;;;;;;;;;15.50;13.75;;;;;23.28;48.33;100898.34;5040359;28;46055;-65
2023/06/12 03:08:22;;;;;;;;;17.75;17.75;;;;;23.26;48.23;100887.75;5022421;28;45323;-65
2023/06/12 03:10:47;;;;;;;;;17.00;15.00;;;;;23.25;48.00;100893.22;5040500;28;45403;-65
2023/06/12 03:13:13;;;;;;;;;14.75;13.75;;;;;23.24;48.27;100894.16;5040420;28;45384;-65
2023/06/12 03:15:38;;;;;;;;;15.25;15.25;;;;;23.23;48.29;100889.75;5039154;28;47998;-65
2023/06/12 03:18:04;;;;;;;;;16.00;15.25;;;;;23.20;48.45;100890.81;5038718;28;45372;-65
2023/06/12 03:20:33;;;;;;;;;19.50;16.25;;;;;23.19;48.30;100898.00;5040467;28;45253;-65
2023/06/12 03:22:58;;;;;;;;;16.00;15.25;;;;;23.15;48.15;100896.47;5040208;28;45229;-64
2023/06/12 03:25:24;;;;;;;;;16.50;16.50;;;;;23.16;48.55;100900.88;5039831;28;45420;-65
2023/06/12 03:27:49;;;;;;;;;17.75;14.75;;;;;23.10;48.13;100890.53;5040004;28;45317;-65
2023/06/12 03:30:14;;;;;;;;;17.50;15.25;;;;;23.13;48.16;100909.09;5040299;28;45406;-65
2023/06/12 03:32:40;;;;;;;;;17.50;16.75;;;;;23.13;48.38;100902.84;5039677;28;45438;-65
2023/06/12 03:35:06;;;;;;;;;15.75;15.00;;;;;23.09;48.29;100901.34;5021956;28;47128;-65
2023/06/12 03:37:31;;;;;;;;;14.75;14.75;;;;;23.08;48.27;100908.53;5039392;28;45475;-65
2023/06/12 03:39:57;;;;;;;;;18.25;16.75;;;;;23.07;48.37;100906.81;5040060;28;45376;-65
2023/06/12 03:42:22;;;;;;;;;19.25;17.50;;;;;23.03;48.45;100903.47;5039851;28;45354;-65
2023/06/12 03:44:48;;;;;;;;;19.75;19.00;;;;;23.04;48.11;100904.31;5039720;28;45281;-65
2023/06/12 03:47:14;;;;;;;;;25.75;22.75;;;;;23.02;48.20;100898.22;5039630;28;45384;-65
2023/06/12 03:49:39;;;;;;;;;12.75;12.25;;;;;22.99;48.48;100907.31;5022060;28;45293;-65
2023/06/12 03:52:05;;;;;;;;;17.00;16.75;;;;;23.00;48.22;100914.38;5039899;28;45418;-64
2023/06/12 03:54:31;;;;;;;;;19.75;17.75;;;;;22.99;48.25;100906.44;5039691;28;45539;-65
2023/06/12 03:56:56;;;;;;;;;18.50;17.25;;;;;22.98;48.01;100905.59;5039598;28;45246;-64
2023/06/12 03:59:21;;;;;;;;;20.50;16.25;;;;;22.96;48.48;100912.84;5021837;28;45286;-65
2023/06/12 04:01:48;;;;;;;;;25.00;24.00;;;;;22.95;48.36;100911.13;5039482;28;45309;-64
2023/06/12 04:04:14;;;;;;;;;17.00;15.50;;;;;22.91;48.40;100898.03;5040019;28;46149;-64
2023/06/12 04:06:40;;;;;;;;;14.50;14.50;;;;;22.93;48.45;100907.69;5039537;28;45395;-64
2023/06/12 04:09:12;;;;;;;;;20.50;16.50;;;;;22.91;48.42;100898.03;5039729;28;45493;-64
2023/06/12 04:11:40;;;;;;;;;17.25;15.00;;;;;22.93;48.35;100896.09;5039294;28;45434;-64
2023/06/12 04:14:06;;;;;;;;;17.00;14.50;;;;;22.91;48.49;100898.88;5033304;28;47249;-64
2023/06/12 04:16:32;;;;;;;;;18.25;16.00;;;;;22.89;48.37;100893.63;5041264;28;45463;-64
2023/06/12 04:19:03;;;;;;;;;18.50;17.25;;;;;22.87;48.44;100897.38;5041684;28;45372;-64
2023/06/12 04:21:30;;;;;;;;;21.00;19.75;;;;;22.88;48.39;100899.09;5041583;28;45737;-64
2023/06/12 04:23:55;;;;;;;;;16.00;14.00;;;;;22.82;48.62;100896.81;5059454;28;47166;-64
2023/06/12 04:26:21;;;;;;;;;15.50;14.25;;;;;22.85;48.68;100908.16;5040964;28;45311;-64
2023/06/12 04:28:46;;;;;;;;;16.50;15.25;;;;;22.82;47.93;100905.69;5059711;28;45288;-64
2023/06/12 04:31:15;;;;;;;;;13.50;13.25;;;;;22.80;48.59;100907.59;5059196;28;45384;-64
2023/06/12 04:33:41;;;;;;;;;21.00;17.75;;;;;22.80;48.54;100909.41;5059357;28;45325;-64
2023/06/12 04:36:07;;;;;;;;;15.75;14.50;;;;;22.82;48.10;100916.41;5041240;28;45317;-64
2023/06/12 04:38:38;;;;;;;;;19.50;18.25;;;;;22.80;48.31;100910.28;5059584;28;45309;-64
2023/06/12 04:41:05;;;;;;;;;15.25;15.00;;;;;22.83;48.50;100914.56;5037289;28;45331;-64
2023/06/12 04:43:31;;;;;;;;;18.00;15.75;;;;;22.82;48.48;100911.03;5039023;28;45295;-64
2023/06/12 04:45:57;;;;;;;;;19.75;16.25;;;;;22.84;48.34;100916.31;5038888;28;45407;-64
2023/06/12 04:48:23;;;;;;;;;16.75;15.50;;;;;22.84;48.37;100913.63;5039456;28;45517;-64
2023/06/12 04:50:50;;;;;;;;;18.75;14.25;;;;;22.83;48.75;100915.44;5042585;28;45412;-64
2023/06/12 04:53:19;;;;;;;;;20.00;16.75;;;;;22.84;48.59;100913.63;5042379;28;46146;-64
2023/06/12 04:55:50;;;;;;;;;15.75;15.75;;;;;22.82;48.45;100912.88;5042383;28;45241;-65
2023/06/12 04:58:17;;;;;;;;;21.50;21.50;;;;;22.84;48.33;100918.97;5042285;28;45328;-64
2023/06/12 05:00:44;;;;;;;;;19.50;17.75;;;;;22.85;48.46;100913.50;5042475;28;45413;-64
2023/06/12 05:03:10;;;;;;;;;18.75;17.00;;;;;22.85;48.53;100920.72;5024195;28;47966;-65
2023/06/12 05:05:35;;;;;;;;;16.00;15.50;;;;;22.84;48.41;100924.34;5042313;28;45253;-61
2023/06/12 05:08:01;;;;;;;;;14.50;14.00;;;;;22.78;48.51;100912.22;5042127;28;54706;-63
2023/06/12 05:10:26;;;;;;;;;16.25;15.50;;;;;22.83;48.15;100923.50;5042345;28;45234;-68
2023/06/12 05:12:51;;;;;;;;;17.75;17.50;;;;;22.83;48.50;100920.81;5042211;28;45376;-69
2023/06/12 05:15:17;;;;;;;;;20.00;17.00;;;;;22.83;48.40;100928.84;5042295;28;45249;-73
2023/06/12 05:17:42;;;;;;;;;21.25;19.25;;;;;22.81;49.03;100916.50;5042141;28;45778;-71
2023/06/12 05:20:10;;;;;;;;;19.00;17.25;;;;;22.84;48.91;100925.22;5042206;28;45437;-70
2023/06/12 05:22:36;;;;;;;;;21.75;18.50;;;;;22.84;48.73;100919.84;5024095;28;47233;-71
2023/06/12 05:25:03;;;;;;;;;21.50;16.50;;;;;22.84;49.05;100913.63;5041755;28;45455;-71
2023/06/12 05:27:28;;;;;;;;;19.25;18.50;;;;;22.83;49.25;100910.09;5042176;28;45335;-71
2023/06/12 05:29:54;;;;;;;;;21.00;18.25;;;;;22.85;49.30;100915.34;5041993;28;45284;-71
2023/06/12 05:32:19;;;;;;;;;19.50;18.25;;;;;22.85;49.43;100912.66;5041408;28;46255;-70
2023/06/12 05:34:44;;;;;;;;;23.00;19.75;;;;;22.83;49.52;100906.53;5041838;28;45226;-71
2023/06/12 05:37:10;;;;;;;;;21.25;19.50;;;;;22.86;49.47;100914.41;5041906;28;45234;-70
2023/06/12 05:39:35;;;;;;;;;23.00;21.00;;;;;22.87;49.55;100910.75;5041955;28;45444;-71
2023/06/12 05:42:00;;;;;;;;;20.50;17.25;;;;;22.88;49.63;100918.69;5022924;28;46598;-71
2023/06/12 05:44:26;;;;;;;;;21.75;19.50;;;;;22.89;49.49;100911.50;5030781;28;51597;-70
2023/06/12 05:46:52;;;;;;;;;23.50;22.00;;;;;22.92;49.99;100915.81;5038900;28;45237;-70
2023/06/12 05:49:18;;;;;;;;;25.50;24.25;;;;;22.94;49.67;100919.25;5038259;28;45451;-70
2023/06/12 05:51:43;;;;;;;;;22.00;18.50;;;;;22.97;49.76;100916.41;5027426;28;45414;-69
2023/06/12 05:54:08;;;;;;;;;21.50;19.50;;;;;22.97;49.81;100909.22;5041083;28;45309;-69
2023/06/12 05:56:34;;;;;;;;;28.00;27.00;;;;;22.97;49.61;100916.41;5041617;28;45407;-67
2023/06/12 05:58:59;;;;;;;;;33.00;28.75;;;;;23.01;49.65;100918.78;5039625;28;45475;-68
2023/06/12 06:01:25;;;;;;;;;23.50;23.00;;;;;23.03;49.88;100919.53;5039086;28;46135;-68
2023/06/12 06:03:50;;;;;;;;;29.00;28.00;;;;;23.04;50.11;100915.91;5040989;28;45328;-68
2023/06/12 06:06:16;;;;;;;;;26.00;22.00;;;;;23.09;50.05;100920.09;5041359;28;45257;-68
2023/06/12 06:08:42;;;;;;;;;23.75;23.75;;;;;23.10;50.15;100928.03;5041129;28;45595;-68
2023/06/12 06:11:08;;;;;;;;;21.50;19.25;;;;;23.13;50.22;100924.31;5040976;28;46070;-68
2023/06/12 06:13:34;;;;;;;;;25.25;21.50;;;;;23.12;50.26;100915.41;5040797;28;45329;-70
2023/06/12 06:16:01;;;;;;;;;29.25;25.25;;;;;23.13;50.16;100911.78;5040991;28;45266;-68
2023/06/12 06:18:27;;;;;;;;;26.25;22.75;;;;;23.19;50.05;100915.91;5039491;28;45389;-60
2023/06/12 06:20:53;;;;;;;;;24.25;21.00;;;;;23.21;50.06;100917.53;5041966;28;45460;-59
2023/06/12 06:23:18;;;;;;;;;21.75;20.75;;;;;23.23;49.67;100917.41;5041188;28;45245;-60
2023/06/12 06:25:44;;;;;;;;;23.00;21.25;;;;;23.26;50.18;100924.41;5040464;28;46842;-60
2023/06/12 06:28:09;;;;;;;;;21.50;19.75;;;;;23.26;49.90;100925.28;5023309;28;45550;-60
2023/06/12 06:30:34;;;;;;;;;20.00;19.25;;;;;23.28;49.97;100920.69;5054284;28;46311;-59
2023/06/12 06:33:00;;;;;;;;;23.00;23.00;;;;;23.31;50.21;100925.84;5042738;28;45407;-60
2023/06/12 06:35:26;;;;;;;;;27.25;22.75;;;;;23.34;49.99;100922.94;5061199;28;45346;-60
2023/06/12 06:37:51;;;;;;;;;18.75;18.00;;;;;23.37;50.13;100917.38;5042631;28;45647;-60
2023/06/12 06:40:16;;;;;;;;;20.75;19.75;;;;;23.40;50.19;100916.31;5060854;28;46053;-60
2023/06/12 06:42:42;;;;;;;;;25.75;22.50;;;;;23.42;50.24;100918.91;5042680;28;45388;-60
2023/06/12 06:45:08;;;;;;;;;21.50;20.75;;;;;23.44;50.25;100919.66;5029655;28;45301;-60
2023/06/12 06:47:33;;;;;;;;;21.25;19.00;;;;;23.46;49.93;100925.78;5040221;28;45393;-60
2023/06/12 06:50:00;;;;;;;;;20.00;18.00;;;;;23.44;49.96;100923.19;5022786;28;47432;-60
2023/06/12 06:52:26;;;;;;;;;22.25;19.50;;;;;23.46;49.96;100926.66;5030152;28;45523;-60
2023/06/12 06:54:51;;;;;;;;;20.75;19.50;;;;;23.47;50.04;100931.06;5060764;28;45228;-60
2023/06/12 06:57:17;;;;;;;;;20.00;19.25;;;;;23.43;50.07;100924.16;5040817;28;45225;-60
2023/06/12 06:59:42;;;;;;;;;24.75;21.25;;;;;23.49;50.42;100925.59;5040469;28;46093;-60
2023/06/12 07:02:07;;;;;;;;;20.75;19.25;;;;;23.48;49.88;100921.19;5016426;28;45448;-61
2023/06/12 07:04:33;;;;;;;;;19.50;17.00;;;;;23.49;49.83;100922.91;5041168;28;45218;-61
2023/06/12 07:06:58;;;;;;;;;22.50;21.75;;;;;23.52;49.89;100925.38;5046579;28;45628;-61
2023/06/12 07:09:24;;;;;;;;;30.75;22.00;;;;;23.49;49.94;100917.53;5031653;28;45337;-61
2023/06/12 07:11:50;;;;;;;;;25.75;23.75;;;;;23.53;49.83;100927.09;5041486;28;45423;-61
2023/06/12 07:14:16;;;;;;;;;19.75;19.00;;;;;23.51;50.02;100923.69;5039868;28;45324;-61
2023/06/12 07:16:41;;;;;;;;;20.50;19.50;;;;;23.54;49.84;100923.47;5039561;28;45463;-61
2023/06/12 07:19:06;;;;;;;;;18.00;17.25;;;;;23.57;49.88;100930.44;5022725;28;47143;-61
2023/06/12 07:21:32;;;;;;;;;17.00;13.75;;;;;23.60;49.95;100938.31;5022027;28;45615;-61
2023/06/12 07:23:58;;;;;;;;;22.00;18.75;;;;;23.62;50.02;100937.25;5040061;28;45297;-60
2023/06/12 07:26:24;;;;;;;;;23.50;20.50;;;;;23.62;49.88;100934.56;5039827;28;45431;-61
2023/06/12 07:28:49;;;;;;;;;19.75;18.50;;;;;23.66;49.78;100933.38;5040303;28;45406;-61
2023/06/12 07:31:15;;;;;;;;;49.50;41.50;;;;;23.71;50.20;100933.09;5035348;28;45444;-61
2023/06/12 07:33:41;;;;;;;;;21.50;19.50;;;;;23.73;49.84;100928.47;5039764;28;45443;-61
2023/06/12 07:36:06;;;;;;;;;20.50;19.25;;;;;23.76;50.01;100933.63;5037240;28;45654;-61
2023/06/12 07:38:32;;;;;;;;;22.00;21.75;;;;;23.82;50.01;100937.72;5039574;28;45278;-60
2023/06/12 07:40:57;;;;;;;;;19.75;17.25;;;;;23.85;49.76;100932.16;5031972;28;45290;-61
2023/06/12 07:43:22;;;;;;;;;23.50;21.25;;;;;23.86;49.79;100926.69;5044488;28;45516;-61
2023/06/12 07:45:48;;;;;;;;;19.50;18.75;;;;;23.90;49.84;100921.97;5044970;28;45230;-60
2023/06/12 07:48:13;;;;;;;;;25.75;21.75;;;;;23.94;50.06;100920.81;5039340;28;45342;-61
2023/06/12 07:50:39;;;;;;;;;26.50;24.50;;;;;23.97;50.00;100917.91;5039644;28;45250;-62
2023/06/12 07:53:05;;;;;;;;;23.25;20.75;;;;;23.99;49.95;100917.84;5049526;28;45355;-61
2023/06/12 07:55:31;;;;;;;;;19.50;19.00;;;;;24.05;49.96;100928.16;5034591;28;45335;-60
2023/06/12 07:57:57;;;;;;;;;21.50;20.00;;;;;24.07;49.94;100923.53;5031311;28;45352;-61
2023/06/12 08:00:24;;;;;;;;;20.50;20.00;;;;;24.10;49.99;100914.41;5035285;28;45300;-61
2023/06/12 08:02:57;;;;;;;;;20.00;18.75;;;;;24.14;50.04;100922.16;5039408;28;45250;-60
2023/06/12 08:05:25;;;;;;;;;19.25;19.00;;;;;24.16;49.94;100925.59;5021449;28;45472;-61
2023/06/12 08:07:51;;;;;;;;;27.50;24.50;;;;;24.16;49.58;100908.63;5039091;28;46351;-60
2023/06/12 08:10:17;;;;;;;;;23.25;20.50;;;;;24.16;49.90;100911.28;5039015;28;45174;-61
2023/06/12 08:12:42;;;;;;;;;19.75;18.25;;;;;24.24;49.54;100914.31;5042374;28;45481;-61
2023/06/12 08:15:09;;;;;;;;;22.75;17.75;;;;;24.25;50.00;100902.63;5039568;28;45181;-61
2023/06/12 08:17:37;;;;;;;;;23.25;20.75;;;;;24.30;49.90;100913.03;5038693;28;47487;-60
2023/06/12 08:20:08;;;;;;;;;20.00;19.25;;;;;24.31;49.81;100912.94;5039474;28;45409;-61
2023/06/12 08:22:34;;;;;;;;;21.25;18.00;;;;;24.34;49.52;100904.66;5039525;28;45202;-61
2023/06/12 08:25:01;;;;;;;;;22.50;21.00;;;;;24.37;49.78;100897.38;5041211;28;45425;-61
2023/06/12 08:27:27;;;;;;;;;21.75;19.75;;;;;24.38;49.39;100897.25;5042380;28;46179;-60
2023/06/12 08:29:52;;;;;;;;;18.75;16.75;;;;;24.44;49.53;100901.31;5035742;28;45350;-61
2023/06/12 08:32:17;;;;;;;;;20.00;17.75;;;;;24.46;49.48;100907.44;5040241;28;45458;-61
2023/06/12 08:34:43;;;;;;;;;19.50;18.25;;;;;24.50;49.37;100911.63;5022055;28;49074;-61
2023/06/12 08:37:08;;;;;;;;;17.75;17.00;;;;;24.44;49.64;100890.56;5024566;28;45445;-61
2023/06/12 08:39:33;;;;;;;;;18.50;17.25;;;;;24.53;49.77;100903.38;5043053;28;45345;-61
2023/06/12 08:42:04;;;;;;;;;22.25;22.00;;;;;24.58;49.46;100908.41;5045031;28;45385;-60
2023/06/12 08:44:31;;;;;;;;;22.75;21.00;;;;;24.60;49.29;100906.47;5042848;28;45428;-61
2023/06/12 08:47:00;;;;;;;;;23.50;19.75;;;;;24.63;49.64;100907.13;5041762;28;46936;-61
2023/06/12 08:49:26;;;;;;;;;25.00;23.00;;;;;24.66;49.46;100912.28;5042395;28;45325;-61
2023/06/12 08:51:52;;;;;;;;;22.25;19.75;;;;;24.69;49.67;100910.38;5044606;28;45527;-61
2023/06/12 08:54:18;;;;;;;;;21.50;17.75;;;;;24.71;49.66;100908.44;5043892;28;45424;-61
2023/06/12 08:56:45;;;;;;;;;26.50;22.50;;;;;24.70;49.46;100904.88;5044107;28;47146;-61
2023/06/12 08:59:11;;;;;;;;;22.75;21.75;;;;;24.73;49.52;100907.34;5041658;28;45486;-61
2023/06/12 09:01:38;;;;;;;;;24.25;22.75;;;;;24.76;49.23;100898.22;5041408;28;45346;-61
2023/06/12 09:04:09;;;;;;;;;19.50;18.50;;;;;24.74;49.33;100903.72;5024119;28;45902;-61
2023/06/12 09:06:36;;;;;;;;;24.25;23.75;;;;;24.77;49.25;100902.63;5039044;28;46297;-60
2023/06/12 09:09:03;;;;;;;;;22.25;21.50;;;;;24.77;49.65;100908.00;5041543;28;45390;-60
2023/06/12 09:11:28;;;;;;;;;21.25;18.00;;;;;24.76;48.91;100901.75;5040121;28;45312;-61
2023/06/12 09:13:54;;;;;;;;;23.50;22.50;;;;;24.74;48.85;100889.41;5041382;28;45341;-61
2023/06/12 09:16:20;;;;;;;;;22.75;20.75;;;;;24.80;49.22;100911.34;5041248;28;45875;-61
2023/06/12 09:18:52;;;;;;;;;24.00;23.00;;;;;24.76;49.27;100899.06;5041475;28;45392;-60
2023/06/12 09:21:17;;;;;;;;;19.50;17.25;;;;;24.83;49.31;100903.03;5039732;28;45384;-60
2023/06/12 09:23:45;;;;;;;;;20.50;20.50;;;;;24.87;49.01;100897.44;5023121;28;45697;-60
2023/06/12 09:26:15;;;;;;;;;21.50;18.75;;;;;24.90;49.13;100900.75;5024692;28;47133;-60
2023/06/12 09:28:44;;;;;;;;;19.50;17.25;;;;;24.95;49.00;100900.44;5038869;28;45346;-60
2023/06/12 09:31:09;;;;;;;;;17.50;17.00;;;;;24.98;48.61;100903.75;5041085;28;45451;-60
2023/06/12 09:33:41;;;;;;;;;20.00;19.50;;;;;25.02;48.90;100914.28;5022948;28;45673;-60
2023/06/12 09:36:10;;;;;;;;;19.00;18.25;;;;;25.07;49.00;100920.16;5039215;28;45411;-60
2023/06/12 09:38:36;;;;;;;;;20.25;19.75;;;;;25.08;48.89;100917.41;5040723;28;45276;-61
2023/06/12 09:41:03;;;;;;;;;18.75;18.75;;;;;25.10;49.06;100923.50;5041040;28;45224;-60
2023/06/12 09:43:30;;;;;;;;;21.75;21.00;;;;;25.13;49.03;100922.41;5040943;28;45512;-60
2023/06/12 09:45:55;;;;;;;;;16.00;16.00;;;;;25.16;48.86;100919.53;5040436;28;46188;-60
2023/06/12 09:48:21;;;;;;;;;23.00;21.00;;;;;25.19;48.64;100927.34;5022942;28;45329;-60
2023/06/12 09:50:46;;;;;;;;;19.25;17.75;;;;;25.20;48.87;100928.22;5017283;28;45410;-61
2023/06/12 09:53:16;;;;;;;;;21.00;20.00;;;;;25.24;48.71;100925.19;5040622;28;45292;-61
2023/06/12 09:55:44;;;;;;;;;21.00;19.75;;;;;25.25;48.60;100920.69;5037353;28;46403;-60
2023/06/12 09:58:12;;;;;;;;;23.75;23.25;;;;;25.27;48.75;100919.59;5040843;28;45487;-60
2023/06/12 10:00:38;;;;;;;;;26.25;23.25;;;;;25.31;49.05;100928.28;5042504;28;45325;-60
2023/06/12 10:03:06;;;;;;;;;21.50;18.50;;;;;25.27;48.64;100914.22;5022891;28;45846;-60
2023/06/12 10:05:35;;;;;;;;;24.25;21.25;;;;;25.35;49.00;100920.88;5022912;28;48556;-60
2023/06/12 10:08:03;;;;;;;;;25.25;25.25;;;;;25.42;48.29;100919.44;5031024;28;45474;-59
2023/06/12 10:10:30;;;;;;;;;30.75;24.00;;;;;25.45;48.38;100913.84;5039431;28;45627;-59
2023/06/12 10:12:56;;;;;;;;;26.00;25.50;;;;;25.50;48.84;100918.88;5040473;28;45323;-61
2023/06/12 10:15:22;;;;;;;;;27.50;27.25;;;;;25.52;48.75;100916.94;5037793;28;45455;-60
2023/06/12 10:17:53;;;;;;;;;27.50;24.50;;;;;25.57;48.81;100921.00;5040383;28;45436;-60
2023/06/12 10:20:20;;;;;;;;;25.50;24.50;;;;;25.61;48.31;100914.41;5022828;28;45494;-60
2023/06/12 10:22:46;;;;;;;;;23.50;21.50;;;;;25.64;48.36;100914.19;5040560;28;45211;-60
2023/06/12 10:25:14;;;;;;;;;26.25;23.50;;;;;25.71;48.32;100919.97;5040121;28;46312;-60
2023/06/12 10:27:41;;;;;;;;;27.75;24.25;;;;;25.75;48.20;100907.16;5040001;28;45390;-59
2023/06/12 10:30:11;;;;;;;;;22.50;21.75;;;;;25.78;48.33;100905.06;5040324;28;45364;-59
2023/06/12 10:32:37;;;;;;;;;25.25;23.25;;;;;25.79;48.32;100903.25;5036930;28;46576;-61
2023/06/12 10:35:03;;;;;;;;;22.25;21.25;;;;;25.84;48.17;100903.75;5037518;28;45364;-60
2023/06/12 10:37:34;;;;;;;;;28.25;26.00;;;;;25.86;48.29;100900.94;5040429;28;45237;-59
2023/06/12 10:40:12;;;;;;;;;21.25;19.50;;;;;25.88;47.98;100902.53;5040689;28;45439;-60
2023/06/12 10:42:47;;;;;;;;;27.25;22.75;;;;;25.95;48.62;100905.63;5017294;28;45635;-60
2023/06/12 10:45:21;;;;;;;;;22.25;21.00;;;;;25.99;48.02;100898.13;5035810;28;46102;-60
2023/06/12 10:48:02;;;;;;;;;27.50;23.00;;;;;26.04;48.45;100904.06;5038169;28;45608;-60
2023/06/12 10:50:28;;;;;;;;;24.50;20.50;;;;;26.06;48.68;100902.13;5037985;28;45329;-62
2023/06/12 10:52:55;;;;;;;;;23.25;22.00;;;;;26.12;48.77;100907.03;5048830;28;45311;-61
2023/06/12 10:55:31;;;;;;;;;31.25;26.25;;;;;26.17;48.55;100907.53;5040078;28;46072;-61
2023/06/12 10:58:03;;;;;;;;;21.25;18.75;;;;;26.22;48.59;100896.41;5051988;28;45248;-61
2023/06/12 11:00:35;;;;;;;;;27.00;26.00;;;;;26.25;48.19;100899.72;5057689;28;45316;-61
2023/06/12 11:03:02;;;;;;;;;23.00;22.50;;;;;26.32;48.48;100901.94;5060428;28;45632;-61
2023/06/12 11:05:29;;;;;;;;;21.75;20.25;;;;;26.38;48.03;100890.69;5045414;28;45531;-61
2023/06/12 11:08:06;;;;;;;;;20.25;18.50;;;;;26.48;48.56;100891.66;5039478;28;45297;-61